KERY

Luce County Airport

Newberry, Michigan, USA
METAR KERY 260315Z AUTO 24015G21KT 10SM OVC042 M03/M06 A2978 RMK AO2 T10301056
Observed Flight Rules
Feb-26 @ 03:15 UTC (16 minutes ago) Visual Flight Rules
Wind Visibility Clouds
240° at 15 knots
 Gusting to 21 knots
10 miles
  • Overcast at 4,200' AGL
Temperatures Readings
Current -3°C / 27°F
Dewpoint -6°C / 21°F
Humidity 80%
Altimeter 29.78" Hg
Pressure 1008 hPa
Elevation 265
METAR KERY 260315Z AUTO 24015G21KT 10SM OVC042 M03/M06 A2978 RMK AO2 T10301056
Observed Flight Rules
Feb-26 @ 03:15 UTC
(16 minutes ago)
VFR
Wind Visibility
240° at 15 knots
 Gusting to 21 knots
10 miles
Clouds
  • Overcast at 4,200' AGL
Temperature Dewpoint
-3°C / 27°F -6°C / 21°F
Humidity Altimeter Pressure
80% 29.78" Hg 1008 hPa